createdAt,value
2018-11-03T00:00:36.627Z,18.3
2018-11-03T00:01:36.625Z,15.4
2018-11-03T00:02:37.446Z,15.4
2018-11-03T00:03:37.574Z,12.4
2018-11-03T00:04:37.506Z,15.4
2018-11-03T00:05:36.510Z,15.4
2018-11-03T00:06:38.277Z,15.4
2018-11-03T00:07:36.525Z,15.4
2018-11-03T00:08:37.696Z,12.4
2018-11-03T00:09:36.577Z,12.4
2018-11-03T00:10:37.169Z,15.4
2018-11-03T00:11:36.600Z,15.4
2018-11-03T00:12:37.148Z,12.4
2018-11-03T00:13:36.515Z,12.4
2018-11-03T00:14:37.129Z,12.4
2018-11-03T00:15:36.543Z,15.4
2018-11-03T00:16:37.630Z,15.4
2018-11-03T00:17:37.178Z,15.4
2018-11-03T00:18:37.080Z,15.4
2018-11-03T00:19:36.524Z,18.3
2018-11-03T00:20:37.226Z,18.3
2018-11-03T00:21:37.152Z,18.3
2018-11-03T00:22:37.134Z,18.3
2018-11-03T00:23:36.512Z,18.3
2018-11-03T00:24:37.711Z,21.3
2018-11-03T00:25:36.564Z,21.3
2018-11-03T00:26:38.728Z,24.3
2018-11-03T00:27:36.530Z,24.3
2018-11-03T00:28:37.831Z,24.3
2018-11-03T00:29:36.501Z,24.3
2018-11-03T00:30:36.599Z,21.3
2018-11-03T00:31:37.649Z,24.3
2018-11-03T00:32:36.531Z,24.3
2018-11-03T00:33:37.332Z,21.3
2018-11-03T00:34:37.121Z,21.3
2018-11-03T00:35:36.483Z,18.3
2018-11-03T00:36:36.565Z,21.3
2018-11-03T00:37:37.452Z,18.3
2018-11-03T00:38:37.024Z,21.3
2018-11-03T00:39:36.475Z,18.3
2018-11-03T00:40:37.538Z,18.3
2018-11-03T00:41:36.520Z,21.3
2018-11-03T00:42:36.603Z,21.3
2018-11-03T00:43:37.262Z,18.3
2018-11-03T00:44:36.588Z,15.4
2018-11-03T00:45:37.139Z,15.4
2018-11-03T00:46:37.054Z,15.4
2018-11-03T00:47:36.548Z,15.4
2018-11-03T00:48:37.447Z,15.4
2018-11-03T00:49:36.483Z,15.4
2018-11-03T00:50:37.131Z,15.4
2018-11-03T00:51:38.155Z,12.4
2018-11-03T00:52:36.552Z,12.4
2018-11-03T00:53:38.338Z,12.4
2018-11-03T00:54:36.488Z,9.5
2018-11-03T00:55:37.263Z,9.5
2018-11-03T00:56:36.550Z,9.5
2018-11-03T00:57:37.262Z,6.6
2018-11-03T00:58:37.065Z,6.6
2018-11-03T00:59:37.072Z,6.6
2018-11-03T01:00:37.272Z,6.6
2018-11-03T01:01:37.206Z,6.6
2018-11-03T01:02:36.476Z,6.6
2018-11-03T01:03:37.213Z,3.9
2018-11-03T01:04:36.499Z,3.9
2018-11-03T01:05:37.866Z,3.9
2018-11-03T01:06:36.551Z,0
2018-11-03T01:07:37.169Z,0
2018-11-03T01:08:36.469Z,0
2018-11-03T01:09:36.521Z,0
2018-11-03T01:10:36.521Z,1.8
2018-11-03T01:11:37.960Z,1.8
2018-11-03T01:12:36.477Z,0
2018-11-03T01:13:38.224Z,0
2018-11-03T01:14:36.481Z,0
2018-11-03T01:15:36.487Z,0
2018-11-03T01:16:36.481Z,0
2018-11-03T01:17:37.469Z,0
2018-11-03T01:18:38.351Z,1.8
2018-11-03T01:19:36.487Z,0
2018-11-03T01:20:36.561Z,0
2018-11-03T01:21:40.240Z,0
2018-11-03T01:22:36.465Z,0
2018-11-03T01:23:38.208Z,0
2018-11-03T01:24:36.460Z,1.8
2018-11-03T01:25:38.172Z,0
2018-11-03T01:26:36.490Z,0
2018-11-03T01:27:37.100Z,1.8
2018-11-03T01:28:36.545Z,0
2018-11-03T01:29:37.082Z,0
2018-11-03T01:30:37.482Z,0
2018-11-03T01:31:36.494Z,0
2018-11-03T01:32:38.329Z,0
2018-11-03T01:33:36.520Z,0
2018-11-03T01:34:37.460Z,0
2018-11-03T01:35:36.541Z,0
2018-11-03T01:36:36.995Z,0
2018-11-03T01:37:36.452Z,0
2018-11-03T01:38:37.280Z,0
2018-11-03T01:39:36.459Z,0
2018-11-03T01:40:36.571Z,0
2018-11-03T01:41:36.460Z,0
2018-11-03T01:42:37.143Z,3.9
2018-11-03T01:43:38.209Z,3.9
2018-11-03T01:44:36.473Z,1.8
2018-11-03T01:45:37.449Z,0
2018-11-03T01:46:36.456Z,3.9
2018-11-03T01:47:36.545Z,3.9
2018-11-03T01:48:36.545Z,3.9
2018-11-03T01:49:37.028Z,1.8
2018-11-03T01:50:36.494Z,6.6
2018-11-03T01:51:36.484Z,6.6
2018-11-03T01:52:36.514Z,6.6
2018-11-03T01:53:37.122Z,6.6
2018-11-03T01:54:38.388Z,9.5
2018-11-03T01:55:37.090Z,9.5
2018-11-03T01:56:36.460Z,6.6
2018-11-03T01:57:37.438Z,6.6
2018-11-03T01:58:37.167Z,3.9
2018-11-03T01:59:38.052Z,6.6
2018-11-03T02:00:36.441Z,3.9
2018-11-03T02:01:36.481Z,6.6
2018-11-03T02:02:38.119Z,6.6
2018-11-03T02:03:36.539Z,6.6
2018-11-03T02:04:37.133Z,6.6
2018-11-03T02:05:37.086Z,1.8
2018-11-03T02:06:36.483Z,0
2018-11-03T02:07:37.455Z,0
2018-11-03T02:08:36.515Z,1.8
2018-11-03T02:09:36.449Z,6.6
2018-11-03T02:10:37.046Z,6.6
2018-11-03T02:11:36.499Z,6.6
2018-11-03T02:12:37.457Z,3.9
2018-11-03T02:13:36.461Z,3.9
2018-11-03T02:14:36.431Z,3.9
2018-11-03T02:15:36.463Z,3.9
2018-11-03T02:16:37.387Z,1.8
2018-11-03T02:17:36.994Z,1.8
2018-11-03T02:18:36.541Z,1.8
2018-11-03T02:19:37.674Z,1.8
2018-11-03T02:20:37.188Z,1.8
2018-11-03T02:21:36.495Z,3.9
2018-11-03T02:22:38.091Z,3.9
2018-11-03T02:23:36.448Z,6.6
2018-11-03T02:24:37.454Z,9.5
2018-11-03T02:25:37.450Z,6.6
2018-11-03T02:26:36.440Z,3.9
2018-11-03T02:27:36.638Z,6.6
2018-11-03T02:28:37.407Z,3.9
2018-11-03T02:29:37.215Z,3.9
2018-11-03T02:30:36.472Z,1.8
2018-11-03T02:31:36.658Z,6.6
2018-11-03T02:32:37.168Z,9.5
2018-11-03T02:33:38.019Z,9.5
2018-11-03T02:34:37.089Z,9.5
2018-11-03T02:35:36.548Z,6.6
2018-11-03T02:36:36.938Z,12.4
2018-11-03T02:37:36.530Z,12.4
2018-11-03T02:38:37.188Z,12.4
2018-11-03T02:39:36.608Z,12.4
2018-11-03T02:40:36.459Z,12.4
2018-11-03T02:41:36.570Z,15.4
2018-11-03T02:42:36.474Z,12.4
2018-11-03T02:43:36.544Z,15.4
2018-11-03T02:44:36.482Z,15.4
2018-11-03T02:45:37.286Z,15.4
2018-11-03T02:46:38.145Z,15.4
2018-11-03T02:47:36.491Z,18.3
2018-11-03T02:48:36.504Z,15.4
2018-11-03T02:49:38.171Z,15.4
2018-11-03T02:50:38.178Z,12.4
2018-11-03T02:51:36.467Z,12.4
2018-11-03T02:52:36.444Z,12.4
2018-11-03T02:53:36.529Z,12.4
2018-11-03T02:54:36.491Z,12.4
2018-11-03T02:55:37.102Z,9.5
2018-11-03T02:56:37.997Z,12.4
2018-11-03T02:57:36.520Z,12.4
2018-11-03T02:58:37.268Z,12.4
2018-11-03T02:59:36.453Z,12.4
2018-11-03T03:00:37.417Z,12.4
2018-11-03T03:01:37.060Z,12.4
2018-11-03T03:02:36.787Z,15.4
2018-11-03T03:03:36.763Z,15.4
2018-11-03T03:04:36.460Z,15.4
2018-11-03T03:05:36.462Z,15.4
2018-11-03T03:06:36.967Z,12.4
2018-11-03T03:07:38.999Z,12.4
2018-11-03T03:08:37.103Z,12.4
2018-11-03T03:09:37.346Z,12.4
2018-11-03T03:10:37.692Z,12.4
2018-11-03T03:11:36.550Z,12.4
2018-11-03T03:12:36.483Z,12.4
2018-11-03T03:13:36.536Z,12.4
2018-11-03T03:14:36.412Z,9.5
2018-11-03T03:15:37.026Z,9.5
2018-11-03T03:16:37.766Z,9.5
2018-11-03T03:17:36.553Z,9.5
2018-11-03T03:18:36.463Z,9.5
2018-11-03T03:19:37.302Z,9.5
2018-11-03T03:20:37.043Z,12.4
2018-11-03T03:21:37.403Z,15.4
2018-11-03T03:22:37.467Z,15.4
2018-11-03T03:23:36.437Z,12.4
2018-11-03T03:24:36.470Z,12.4
2018-11-03T03:25:36.514Z,12.4
2018-11-03T03:26:37.116Z,12.4
2018-11-03T03:27:36.438Z,9.5
2018-11-03T03:28:36.511Z,9.5
2018-11-03T03:29:38.160Z,9.5
2018-11-03T03:30:36.957Z,12.4
2018-11-03T03:31:38.460Z,12.4
2018-11-03T03:32:36.433Z,12.4
2018-11-03T03:33:37.090Z,12.4
2018-11-03T03:34:37.497Z,9.5
2018-11-03T03:35:37.132Z,9.5
2018-11-03T03:36:36.448Z,6.6
2018-11-03T03:37:37.135Z,6.6
2018-11-03T03:38:37.455Z,6.6
2018-11-03T03:39:36.431Z,6.6
2018-11-03T03:40:37.106Z,6.6
2018-11-03T03:41:37.781Z,9.5
2018-11-03T03:42:36.437Z,9.5
2018-11-03T03:43:36.435Z,9.5
2018-11-03T03:44:36.419Z,9.5
2018-11-03T03:45:36.418Z,12.4
2018-11-03T03:46:36.483Z,12.4
2018-11-03T03:47:36.499Z,12.4
2018-11-03T03:48:36.446Z,12.4
2018-11-03T03:49:37.628Z,12.4
2018-11-03T03:50:36.432Z,12.4
2018-11-03T03:51:39.811Z,12.4
2018-11-03T03:52:36.409Z,12.4
2018-11-03T03:53:37.011Z,12.4
2018-11-03T03:54:37.645Z,12.4
2018-11-03T03:55:36.469Z,9.5
2018-11-03T03:56:36.418Z,9.5
2018-11-03T03:57:37.496Z,9.5
2018-11-03T03:58:37.087Z,9.5
2018-11-03T03:59:36.487Z,9.5
2018-11-03T04:00:36.981Z,9.5
2018-11-03T04:01:36.466Z,9.5
2018-11-03T04:02:36.412Z,9.5
2018-11-03T04:03:36.425Z,9.5
2018-11-03T04:04:37.525Z,12.4
2018-11-03T04:05:37.042Z,12.4
2018-11-03T04:06:37.136Z,12.4
2018-11-03T04:07:36.439Z,12.4
2018-11-03T04:08:37.897Z,12.4
2018-11-03T04:09:37.456Z,9.5
2018-11-03T04:10:40.013Z,9.5
2018-11-03T04:11:36.455Z,9.5
2018-11-03T04:12:37.523Z,9.5
2018-11-03T04:13:36.452Z,9.5
2018-11-03T04:14:36.472Z,9.5
2018-11-03T04:15:37.062Z,9.5
2018-11-03T04:16:37.056Z,9.5
2018-11-03T04:17:36.420Z,9.5
2018-11-03T04:18:37.022Z,9.5
2018-11-03T04:19:37.476Z,12.4
2018-11-03T04:20:36.430Z,12.4
2018-11-03T04:21:36.461Z,12.4
2018-11-03T04:22:37.393Z,12.4
2018-11-03T04:23:37.401Z,15.4
2018-11-03T04:24:38.101Z,15.4
2018-11-03T04:25:37.142Z,15.4
2018-11-03T04:26:38.045Z,15.4
2018-11-03T04:27:37.617Z,15.4
2018-11-03T04:28:37.399Z,12.4
2018-11-03T04:29:37.084Z,12.4
2018-11-03T04:30:36.447Z,12.4
2018-11-03T04:31:37.404Z,9.5
2018-11-03T04:33:38.671Z,9.5
2018-11-03T04:34:38.613Z,9.5
2018-11-03T04:35:38.662Z,9.5
2018-11-03T04:36:38.608Z,9.5
2018-11-03T04:37:38.624Z,9.5
2018-11-03T04:38:38.583Z,9.5
2018-11-03T04:39:38.696Z,9.5
2018-11-03T04:40:38.647Z,9.5
2018-11-03T04:41:39.975Z,9.5
2018-11-03T04:42:38.585Z,6.6
2018-11-03T04:43:38.583Z,6.6
2018-11-03T04:44:38.674Z,6.6
2018-11-03T04:45:39.612Z,6.6
2018-11-03T04:46:41.198Z,6.6
2018-11-03T04:47:38.670Z,6.6
2018-11-03T04:48:38.679Z,6.6
2018-11-03T04:49:39.474Z,6.6
2018-11-03T04:50:40.177Z,6.6
2018-11-03T04:51:41.641Z,9.5
2018-11-03T04:52:38.602Z,9.5
2018-11-03T04:53:39.975Z,12.4
2018-11-03T04:54:38.681Z,12.4
2018-11-03T04:55:40.259Z,9.5
2018-11-03T04:56:39.275Z,12.4
2018-11-03T04:57:38.600Z,12.4
2018-11-03T04:58:40.115Z,12.4
2018-11-03T04:59:40.262Z,12.4
2018-11-03T05:00:38.727Z,12.4
2018-11-03T05:01:38.611Z,12.4
2018-11-03T05:02:39.194Z,12.4
2018-11-03T05:03:38.587Z,12.4
2018-11-03T05:04:39.577Z,12.4
2018-11-03T05:05:39.316Z,12.4
2018-11-03T05:06:39.591Z,9.5
2018-11-03T05:07:38.567Z,9.5
2018-11-03T05:08:38.705Z,9.5
2018-11-03T05:09:44.450Z,9.5
2018-11-03T05:10:44.267Z,9.5
2018-11-03T05:11:44.278Z,9.5
2018-11-03T05:12:44.257Z,12.4
2018-11-03T05:13:44.266Z,12.4
2018-11-03T05:14:44.311Z,15.4
2018-11-03T05:15:44.234Z,15.4
2018-11-03T05:16:45.511Z,12.4
2018-11-03T05:17:47.272Z,15.4
2018-11-03T05:18:44.295Z,15.4
2018-11-03T05:19:45.210Z,15.4
2018-11-03T05:20:45.463Z,15.4
2018-11-03T05:21:44.276Z,15.4
2018-11-03T05:22:44.921Z,15.4
2018-11-03T05:23:45.306Z,9.5
2018-11-03T05:24:44.783Z,9.5
2018-11-03T05:25:44.889Z,9.5
2018-11-03T05:26:45.412Z,6.6
2018-11-03T05:27:44.327Z,9.5
2018-11-03T05:28:45.218Z,9.5
2018-11-03T05:29:44.215Z,9.5
2018-11-03T05:30:44.761Z,9.5
2018-11-03T05:31:46.084Z,9.5
2018-11-03T05:32:44.265Z,9.5
2018-11-03T05:33:44.294Z,9.5
2018-11-03T05:34:45.430Z,9.5
2018-11-03T05:35:47.376Z,12.4
2018-11-03T05:36:44.751Z,12.4
2018-11-03T05:37:44.998Z,12.4
2018-11-03T05:38:44.219Z,12.4
2018-11-03T05:39:44.246Z,15.4
2018-11-03T05:40:45.217Z,12.4
2018-11-03T05:41:44.964Z,12.4
2018-11-03T05:42:44.942Z,12.4
2018-11-03T05:43:45.703Z,9.5
2018-11-03T05:44:44.944Z,9.5
2018-11-03T05:45:45.625Z,9.5
2018-11-03T05:46:45.550Z,9.5
2018-11-03T05:47:44.918Z,9.5
2018-11-03T05:48:45.531Z,9.5
2018-11-03T05:49:44.735Z,6.6
2018-11-03T05:50:44.208Z,6.6
2018-11-03T05:51:44.847Z,3.9
2018-11-03T05:52:44.290Z,3.9
2018-11-03T05:53:44.301Z,6.6
2018-11-03T05:54:44.225Z,6.6
2018-11-03T05:55:44.221Z,3.9
2018-11-03T05:56:45.224Z,3.9
2018-11-03T05:57:45.434Z,3.9
2018-11-03T05:58:44.273Z,3.9
2018-11-03T06:00:50.735Z,3.9
2018-11-03T06:01:50.108Z,6.6
2018-11-03T06:02:50.827Z,6.6
2018-11-03T06:03:51.774Z,6.6
2018-11-03T06:04:50.622Z,6.6
2018-11-03T06:05:51.676Z,9.5
2018-11-03T06:06:50.130Z,9.5
2018-11-03T06:07:50.737Z,9.5
2018-11-03T06:08:50.860Z,9.5
2018-11-03T06:09:50.117Z,9.5
2018-11-03T06:10:51.353Z,9.5
2018-11-03T06:11:52.481Z,9.5
2018-11-03T06:12:52.764Z,9.5
2018-11-03T06:13:52.331Z,9.5
2018-11-03T06:14:52.735Z,9.5
2018-11-03T06:15:51.417Z,6.6
2018-11-03T06:16:50.726Z,6.6
2018-11-03T06:17:53.398Z,6.6
2018-11-03T06:18:50.778Z,6.6
2018-11-03T06:19:52.442Z,6.6
2018-11-03T06:20:52.749Z,6.6
2018-11-03T06:21:51.720Z,6.6
2018-11-03T06:22:55.397Z,6.6
2018-11-03T06:23:53.317Z,6.6
2018-11-03T06:24:51.836Z,6.6
2018-11-03T06:25:52.604Z,6.6
2018-11-03T06:26:53.780Z,6.6
2018-11-03T06:27:52.854Z,9.5
2018-11-03T06:28:54.036Z,9.5
2018-11-03T06:29:53.250Z,9.5
2018-11-03T06:30:50.971Z,9.5
2018-11-03T06:31:53.059Z,9.5
2018-11-03T06:32:53.446Z,9.5
2018-11-03T06:33:50.282Z,9.5
2018-11-03T06:34:56.550Z,6.6
2018-11-03T06:35:52.076Z,6.6
2018-11-03T06:36:50.120Z,6.6
2018-11-03T06:37:51.795Z,6.6
2018-11-03T06:38:50.292Z,3.9
2018-11-03T06:39:50.168Z,3.9
2018-11-03T06:40:50.077Z,6.6
2018-11-03T06:41:51.254Z,6.6
2018-11-03T06:42:50.076Z,6.6
2018-11-03T06:43:50.772Z,6.6
2018-11-03T06:44:52.464Z,6.6
2018-11-03T06:45:50.132Z,6.6
2018-11-03T06:46:50.156Z,3.9
2018-11-03T06:47:50.101Z,3.9
2018-11-03T06:48:50.142Z,3.9
2018-11-03T06:49:50.925Z,1.8
2018-11-03T06:50:50.158Z,1.8
2018-11-03T06:51:50.770Z,0
2018-11-03T06:52:50.105Z,0
2018-11-03T06:53:50.150Z,1.8
2018-11-03T06:54:50.161Z,0
2018-11-03T06:55:50.111Z,0
2018-11-03T06:56:52.894Z,0
2018-11-03T06:57:50.870Z,0
2018-11-03T06:58:50.106Z,0
2018-11-03T06:59:53.654Z,6.6
2018-11-03T07:00:51.812Z,6.6
2018-11-03T07:01:50.485Z,6.6
2018-11-03T07:02:57.638Z,6.6
2018-11-03T07:03:52.604Z,3.9
2018-11-03T07:04:51.899Z,3.9
2018-11-03T07:05:53.645Z,3.9
2018-11-03T07:06:53.499Z,3.9
2018-11-03T07:07:54.913Z,1.8
2018-11-03T07:08:52.029Z,0
2018-11-03T07:09:50.098Z,0
2018-11-03T07:10:51.398Z,0
2018-11-03T07:11:50.879Z,0
2018-11-03T07:12:50.201Z,0
2018-11-03T07:13:50.846Z,0
2018-11-03T07:14:50.073Z,0
2018-11-03T07:15:50.124Z,0
2018-11-03T07:16:51.829Z,0
2018-11-03T07:17:50.167Z,0
2018-11-03T07:18:50.080Z,0
2018-11-03T07:19:50.633Z,0
2018-11-03T07:20:50.109Z,0
2018-11-03T07:21:50.299Z,0
2018-11-03T07:22:51.274Z,0
2018-11-03T07:23:50.144Z,0
2018-11-03T07:24:50.142Z,0
2018-11-03T07:25:50.089Z,0
2018-11-03T07:26:51.486Z,0
2018-11-03T07:27:50.859Z,0
2018-11-03T07:28:51.951Z,0
2018-11-03T07:29:52.064Z,0
2018-11-03T07:30:50.078Z,0
2018-11-03T07:31:50.082Z,0
2018-11-03T07:32:50.166Z,0
2018-11-03T07:33:50.144Z,0
2018-11-03T07:34:50.186Z,0
2018-11-03T07:35:50.063Z,0
2018-11-03T07:36:50.106Z,0
2018-11-03T07:37:50.739Z,0
2018-11-03T07:38:50.789Z,0
2018-11-03T07:39:50.646Z,0
2018-11-03T07:40:50.223Z,1.8
2018-11-03T07:41:50.117Z,3.9
2018-11-03T07:42:51.324Z,3.9
2018-11-03T07:43:50.703Z,3.9
2018-11-03T07:44:50.260Z,6.6
2018-11-03T07:45:50.178Z,6.6
2018-11-03T07:46:50.807Z,3.9
2018-11-03T07:47:51.052Z,0
2018-11-03T07:48:52.607Z,0
2018-11-03T07:49:50.853Z,0
2018-11-03T07:50:50.927Z,0
2018-11-03T07:51:51.280Z,0
2018-11-03T07:52:50.289Z,0
2018-11-03T07:53:50.270Z,0
2018-11-03T07:54:50.972Z,0
2018-11-03T07:55:50.260Z,0
2018-11-03T07:56:50.207Z,0
2018-11-03T07:57:50.867Z,0
2018-11-03T07:58:51.186Z,1.8
2018-11-03T07:59:55.755Z,3.9
2018-11-03T08:00:52.545Z,1.8
2018-11-03T08:01:52.279Z,3.9
2018-11-03T08:02:50.194Z,3.9
2018-11-03T08:03:50.248Z,3.9
2018-11-03T08:04:50.200Z,1.8
2018-11-03T08:05:52.615Z,0
2018-11-03T08:06:50.267Z,1.8
2018-11-03T08:07:50.155Z,0
2018-11-03T08:08:50.253Z,0
2018-11-03T08:09:50.115Z,3.9
2018-11-03T08:10:51.719Z,6.6
2018-11-03T08:11:50.191Z,1.8
2018-11-03T08:12:50.647Z,1.8
2018-11-03T08:13:50.702Z,3.9
2018-11-03T08:14:50.070Z,3.9
2018-11-03T08:15:53.421Z,1.8
2018-11-03T08:16:50.659Z,1.8
2018-11-03T08:17:50.086Z,1.8
2018-11-03T08:18:50.062Z,1.8
2018-11-03T08:19:51.062Z,3.9
2018-11-03T08:20:50.910Z,3.9
2018-11-03T08:21:51.189Z,0
2018-11-03T08:22:53.195Z,3.9
2018-11-03T08:23:50.996Z,3.9
2018-11-03T08:24:50.979Z,3.9
2018-11-03T08:25:50.110Z,3.9
2018-11-03T08:26:50.741Z,6.6
2018-11-03T08:27:53.084Z,1.8
2018-11-03T08:28:51.182Z,1.8
2018-11-03T08:29:50.139Z,3.9
2018-11-03T08:30:50.157Z,3.9
2018-11-03T08:31:50.106Z,6.6
2018-11-03T08:32:51.161Z,6.6
2018-11-03T08:33:50.049Z,6.6
2018-11-03T08:34:50.082Z,1.8
2018-11-03T08:35:50.062Z,3.9
2018-11-03T08:36:50.687Z,1.8
2018-11-03T08:37:50.693Z,1.8
2018-11-03T08:38:50.089Z,1.8
2018-11-03T08:39:50.158Z,3.9
2018-11-03T08:40:50.102Z,1.8
2018-11-03T08:41:50.159Z,1.8
2018-11-03T08:42:51.312Z,3.9
2018-11-03T08:43:50.879Z,6.6
2018-11-03T08:44:51.422Z,6.6
2018-11-03T08:45:50.633Z,6.6
2018-11-03T08:46:50.136Z,1.8
2018-11-03T08:47:50.084Z,3.9
2018-11-03T08:48:50.163Z,6.6
2018-11-03T08:49:50.116Z,0
2018-11-03T08:50:50.040Z,3.9
2018-11-03T08:51:51.202Z,6.6
2018-11-03T08:52:50.611Z,12.4
2018-11-03T08:53:50.565Z,9.5
2018-11-03T08:54:50.726Z,6.6
2018-11-03T08:55:50.057Z,6.6
2018-11-03T08:56:51.138Z,9.5
2018-11-03T08:57:50.659Z,0
2018-11-03T08:58:50.030Z,1.8
2018-11-03T08:59:50.217Z,0
2018-11-03T09:00:50.041Z,0
2018-11-03T09:01:50.125Z,3.9
2018-11-03T09:02:50.146Z,6.6
2018-11-03T09:03:50.036Z,3.9
2018-11-03T09:04:50.033Z,6.6
2018-11-03T09:05:50.060Z,9.5
2018-11-03T09:06:50.149Z,3.9
2018-11-03T09:07:50.949Z,1.8
2018-11-03T09:08:51.091Z,1.8
2018-11-03T09:09:50.044Z,3.9
2018-11-03T09:10:50.751Z,3.9
2018-11-03T09:11:50.075Z,3.9
2018-11-03T09:12:50.751Z,1.8
2018-11-03T09:13:50.066Z,6.6
2018-11-03T09:14:50.123Z,3.9
2018-11-03T09:15:51.349Z,3.9
2018-11-03T09:16:51.032Z,1.8
2018-11-03T09:17:50.658Z,1.8
2018-11-03T09:18:50.114Z,1.8
2018-11-03T09:19:50.598Z,0
2018-11-03T09:20:50.035Z,0
2018-11-03T09:21:50.176Z,0
2018-11-03T09:22:50.138Z,1.8
2018-11-03T09:23:50.066Z,0
2018-11-03T09:24:50.796Z,3.9
2018-11-03T09:25:50.067Z,9.5
2018-11-03T09:26:53.851Z,12.4
2018-11-03T09:27:51.122Z,9.5
2018-11-03T09:28:50.115Z,3.9
2018-11-03T09:29:50.031Z,3.9
2018-11-03T09:30:50.098Z,6.6
2018-11-03T09:31:50.724Z,12.4
2018-11-03T09:32:50.063Z,9.5
2018-11-03T09:33:50.104Z,3.9
2018-11-03T09:34:52.637Z,6.6
2018-11-03T09:35:50.658Z,6.6
2018-11-03T09:36:50.724Z,6.6
2018-11-03T09:37:50.041Z,3.9
2018-11-03T09:38:50.088Z,1.8
2018-11-03T09:39:51.662Z,1.8
2018-11-03T09:40:50.052Z,1.8
2018-11-03T09:41:50.124Z,6.6
2018-11-03T09:42:50.758Z,3.9
2018-11-03T09:43:51.328Z,3.9
2018-11-03T09:44:50.127Z,1.8
2018-11-03T09:45:50.577Z,6.6
2018-11-03T09:46:50.641Z,6.6
2018-11-03T09:47:50.044Z,6.6
2018-11-03T09:48:50.025Z,6.6
2018-11-03T09:49:50.036Z,6.6
2018-11-03T09:50:50.153Z,1.8
2018-11-03T09:51:50.066Z,6.6
2018-11-03T09:52:50.064Z,6.6
2018-11-03T09:53:50.090Z,6.6
2018-11-03T09:54:50.069Z,3.9
2018-11-03T09:55:50.045Z,12.4
2018-11-03T09:56:50.092Z,9.5
2018-11-03T09:57:50.064Z,3.9
2018-11-03T09:59:50.094Z,1.8
2018-11-03T10:00:50.042Z,3.9
2018-11-03T10:01:50.057Z,1.8
2018-11-03T10:02:50.057Z,3.9
2018-11-03T10:03:50.127Z,1.8
2018-11-03T10:04:50.098Z,0
2018-11-03T10:05:50.018Z,0
2018-11-03T10:06:50.026Z,0
2018-11-03T10:07:50.023Z,1.8
2018-11-03T10:08:50.092Z,1.8
2018-11-03T10:09:50.063Z,0
2018-11-03T10:10:50.069Z,6.6
2018-11-03T10:11:50.028Z,6.6
2018-11-03T10:12:50.054Z,9.5
2018-11-03T10:13:50.170Z,9.5
2018-11-03T10:14:50.000Z,9.5
2018-11-03T10:15:50.115Z,6.6
2018-11-03T10:16:50.104Z,3.9
2018-11-03T10:17:50.032Z,3.9
2018-11-03T10:18:50.103Z,3.9
2018-11-03T10:19:50.036Z,6.6
2018-11-03T10:20:50.082Z,1.8
2018-11-03T10:21:50.001Z,6.6
2018-11-03T10:22:50.117Z,6.6
2018-11-03T10:23:50.122Z,9.5
2018-11-03T10:24:50.041Z,1.8
2018-11-03T10:25:50.089Z,12.4
2018-11-03T10:26:50.509Z,12.4
2018-11-03T10:27:50.083Z,9.5
2018-11-03T10:28:50.011Z,3.9
2018-11-03T10:29:50.042Z,6.6
2018-11-03T10:30:50.070Z,3.9
2018-11-03T10:31:50.070Z,3.9
2018-11-03T10:32:50.058Z,12.4
2018-11-03T10:33:50.239Z,6.6
2018-11-03T10:34:49.994Z,0
2018-11-03T10:35:50.045Z,1.8
2018-11-03T10:36:50.103Z,3.9
2018-11-03T10:37:50.661Z,3.9
2018-11-03T10:38:50.045Z,3.9
2018-11-03T10:39:50.087Z,12.4
2018-11-03T10:40:50.055Z,9.5
2018-11-03T10:41:50.028Z,1.8
2018-11-03T10:42:50.010Z,6.6
2018-11-03T10:43:50.063Z,1.8
2018-11-03T10:44:50.067Z,15.4
2018-11-03T10:45:50.020Z,6.6
2018-11-03T10:46:50.010Z,6.6
2018-11-03T10:47:50.000Z,9.5
2018-11-03T10:48:50.197Z,9.5
2018-11-03T10:49:50.102Z,18.3
2018-11-03T10:50:50.082Z,6.6
2018-11-03T10:51:50.011Z,3.9
2018-11-03T10:52:50.067Z,3.9
2018-11-03T10:53:50.311Z,12.4
2018-11-03T10:54:50.065Z,9.5
2018-11-03T10:55:50.125Z,12.4
2018-11-03T10:56:50.026Z,9.5
2018-11-03T10:57:50.040Z,6.6
2018-11-03T10:58:50.034Z,3.9
2018-11-03T10:59:50.009Z,6.6
2018-11-03T11:00:50.016Z,9.5
2018-11-03T11:01:50.028Z,12.4
2018-11-03T11:02:50.077Z,9.5
2018-11-03T11:03:50.084Z,9.5
2018-11-03T11:04:52.766Z,6.6
2018-11-03T11:05:49.994Z,6.6
2018-11-03T11:06:50.016Z,6.6
2018-11-03T11:07:50.030Z,9.5
2018-11-03T11:08:50.034Z,12.4
2018-11-03T11:09:50.077Z,3.9
2018-11-03T11:10:50.005Z,6.6
2018-11-03T11:11:51.007Z,6.6
2018-11-03T11:12:52.098Z,6.6
2018-11-03T11:13:52.983Z,9.5
2018-11-03T11:14:52.512Z,6.6
2018-11-03T11:15:54.204Z,1.8
2018-11-03T11:16:53.827Z,6.6
2018-11-03T11:17:53.050Z,9.5
2018-11-03T11:18:52.988Z,18.3
2018-11-03T11:19:53.747Z,12.4
2018-11-03T11:20:52.810Z,9.5
2018-11-03T11:21:52.708Z,15.4
2018-11-03T11:22:53.251Z,3.9
2018-11-03T11:23:52.798Z,9.5
2018-11-03T11:24:53.820Z,15.4
2018-11-03T11:25:52.812Z,9.5
2018-11-03T11:26:55.118Z,12.4
2018-11-03T11:27:52.795Z,6.6
2018-11-03T11:28:53.209Z,6.6
2018-11-03T11:29:52.983Z,3.9
2018-11-03T11:30:52.701Z,1.8
2018-11-03T11:31:52.571Z,3.9
2018-11-03T11:32:53.806Z,6.6
2018-11-03T11:33:50.012Z,1.8
2018-11-03T11:34:50.097Z,9.5
2018-11-03T11:35:49.996Z,15.4
2018-11-03T11:36:50.058Z,15.4
2018-11-03T11:37:50.032Z,12.4
2018-11-03T11:38:50.016Z,6.6
2018-11-03T11:39:50.010Z,9.5
2018-11-03T11:40:50.050Z,6.6
2018-11-03T11:41:50.000Z,12.4
2018-11-03T11:42:50.075Z,6.6
2018-11-03T11:43:49.999Z,6.6
2018-11-03T11:44:50.104Z,9.5
2018-11-03T11:45:50.060Z,6.6
2018-11-03T11:46:50.017Z,9.5
2018-11-03T11:47:49.994Z,21.3
2018-11-03T11:48:50.060Z,15.4
2018-11-03T11:49:50.001Z,15.4
2018-11-03T11:50:50.062Z,21.3
2018-11-03T11:51:50.038Z,15.4
2018-11-03T11:52:50.098Z,18.3
2018-11-03T11:53:53.361Z,21.3
2018-11-03T11:54:50.127Z,18.3
2018-11-03T11:55:50.069Z,15.4
2018-11-03T11:56:50.092Z,15.4
2018-11-03T11:57:50.028Z,12.4
2018-11-03T11:58:49.994Z,21.3
2018-11-03T11:59:50.016Z,18.3
2018-11-03T12:00:50.162Z,15.4
2018-11-03T12:01:50.059Z,15.4
2018-11-03T12:02:49.991Z,21.3
2018-11-03T12:03:50.058Z,21.3
2018-11-03T12:04:50.067Z,27.3
2018-11-03T12:05:50.017Z,15.4
2018-11-03T12:06:50.011Z,24.3
2018-11-03T12:07:50.087Z,21.3
2018-11-03T12:08:50.070Z,15.4
2018-11-03T12:09:50.087Z,18.3
2018-11-03T12:10:50.018Z,27.3
2018-11-03T12:11:50.056Z,9.5
2018-11-03T12:12:50.056Z,12.4
2018-11-03T12:13:50.036Z,21.3
2018-11-03T12:14:50.082Z,21.3
2018-11-03T12:15:50.886Z,21.3
2018-11-03T12:16:50.136Z,12.4
2018-11-03T12:17:50.027Z,18.3
2018-11-03T12:18:50.028Z,18.3
2018-11-03T12:19:50.027Z,12.4
2018-11-03T12:20:50.016Z,9.5
2018-11-03T12:21:50.088Z,9.5
2018-11-03T12:22:50.031Z,3.9
2018-11-03T12:23:50.101Z,24.3
2018-11-03T12:24:50.015Z,15.4
2018-11-03T12:25:50.246Z,21.3
2018-11-03T12:26:50.051Z,12.4
2018-11-03T12:27:50.064Z,12.4
2018-11-03T12:28:50.062Z,18.3
2018-11-03T12:29:50.091Z,18.3
2018-11-03T12:30:50.051Z,18.3
2018-11-03T12:31:50.051Z,30.3
2018-11-03T12:32:50.018Z,27.3
2018-11-03T12:33:50.154Z,15.4
2018-11-03T12:34:50.027Z,9.5
2018-11-03T12:35:50.094Z,12.4
2018-11-03T12:36:50.101Z,18.3
2018-11-03T12:37:50.071Z,18.3
2018-11-03T12:38:50.119Z,12.4
2018-11-03T12:39:50.026Z,9.5
2018-11-03T12:40:50.130Z,18.3
2018-11-03T12:41:50.066Z,9.5
2018-11-03T12:42:50.026Z,18.3
2018-11-03T12:43:50.113Z,9.5
2018-11-03T12:44:50.007Z,9.5
2018-11-03T12:45:50.107Z,18.3
2018-11-03T12:46:50.101Z,12.4
2018-11-03T12:47:50.027Z,21.3
2018-11-03T12:48:50.148Z,18.3
2018-11-03T12:49:50.029Z,18.3
2018-11-03T12:50:50.048Z,21.3
2018-11-03T12:51:50.034Z,6.6
2018-11-03T12:52:50.089Z,6.6
2018-11-03T12:53:52.403Z,9.5
2018-11-03T12:54:50.083Z,3.9
2018-11-03T12:55:50.012Z,6.6
2018-11-03T12:56:50.081Z,3.9
2018-11-03T12:57:50.106Z,18.3
2018-11-03T12:58:50.054Z,24.3
2018-11-03T12:59:50.020Z,15.4
2018-11-03T13:00:51.196Z,15.4
2018-11-03T13:01:50.052Z,9.5
2018-11-03T13:02:50.137Z,12.4
2018-11-03T13:03:50.079Z,24.3
2018-11-03T13:04:50.163Z,15.4
2018-11-03T13:05:50.178Z,12.4
2018-11-03T13:06:50.232Z,21.3
2018-11-03T13:07:50.122Z,21.3
2018-11-03T13:08:50.086Z,12.4
2018-11-03T13:09:50.215Z,24.3
2018-11-03T13:10:50.048Z,9.5
2018-11-03T13:11:50.123Z,27.3
2018-11-03T13:12:50.381Z,15.4
2018-11-03T13:13:50.536Z,9.5
2018-11-03T13:14:51.804Z,9.5
2018-11-03T13:15:53.975Z,18.3
2018-11-03T13:16:51.063Z,27.3
2018-11-03T13:17:53.371Z,24.3
2018-11-03T13:18:50.179Z,21.3
2018-11-03T13:19:50.113Z,18.3
2018-11-03T13:20:50.112Z,21.3
2018-11-03T13:21:50.098Z,21.3
2018-11-03T13:22:51.848Z,24.3
2018-11-03T13:23:51.579Z,15.4
2018-11-03T13:24:50.203Z,15.4
2018-11-03T13:25:50.045Z,27.3
2018-11-03T13:26:50.420Z,18.3
2018-11-03T13:27:50.009Z,18.3
2018-11-03T13:28:50.858Z,21.3
2018-11-03T13:29:50.035Z,24.3
2018-11-03T13:30:49.996Z,18.3
2018-11-03T13:31:50.080Z,15.4
2018-11-03T13:32:50.117Z,21.3
2018-11-03T13:33:50.333Z,27.3
2018-11-03T13:34:52.579Z,27.3
2018-11-03T13:35:50.062Z,21.3
2018-11-03T13:36:50.088Z,12.4
2018-11-03T13:37:50.019Z,18.3
2018-11-03T13:38:50.019Z,21.3
2018-11-03T13:39:50.085Z,21.3
2018-11-03T13:40:50.128Z,12.4
2018-11-03T13:41:50.181Z,18.3
2018-11-03T13:42:50.000Z,15.4
2018-11-03T13:43:50.142Z,15.4
2018-11-03T13:44:50.079Z,15.4
2018-11-03T13:45:53.681Z,9.5
2018-11-03T13:46:50.823Z,18.3